Time;durP1;ratioP1;P1;durP2;ratioP2;P2;SDS_P1;SDS_P2;PMS_P1;PMS_P2;Temp;Humidity;BMP_temperature;BMP_pressure;BME280_temperature;BME280_humidity;BME280_pressure;Samples;Min_cycle;Max_cycle;Signal;HPM_P1;HPM_P2
2023/03/14 00:01:56;;;;;;;15.50;3.08;;;10.30;99.90;;;;;;5077801;28;20048;-70
2023/03/14 00:04:22;;;;;;;17.77;3.08;;;10.40;99.90;;;;;;5128890;27;20042;-70
2023/03/14 00:06:49;;;;;;;17.85;3.40;;;10.40;99.90;;;;;;5105445;28;20047;-70
2023/03/14 00:09:15;;;;;;;23.52;3.47;;;10.40;99.90;;;;;;5095286;28;20044;-70
2023/03/14 00:11:41;;;;;;;17.02;3.00;;;10.40;99.90;;;;;;5098523;28;20039;-70
2023/03/14 00:14:07;;;;;;;14.82;3.03;;;10.40;99.90;;;;;;5121793;27;20430;-70
2023/03/14 00:16:32;;;;;;;21.17;3.60;;;10.40;99.90;;;;;;5077236;28;20082;-70
2023/03/14 00:18:59;;;;;;;16.38;3.40;;;10.50;99.90;;;;;;5094994;28;20036;-70
2023/03/14 00:21:25;;;;;;;18.80;5.07;;;10.50;99.90;;;;;;5098552;28;20032;-70
2023/03/14 00:23:51;;;;;;;16.33;2.67;;;10.40;99.90;;;;;;5126644;27;20051;-70
2023/03/14 00:26:19;;;;;;;24.98;3.80;;;10.50;99.90;;;;;;5085857;28;20091;-70
2023/03/14 00:28:44;;;;;;;23.42;4.82;;;10.60;99.90;;;;;;5108848;28;20036;-70
2023/03/14 00:31:12;;;;;;;12.90;2.38;;;10.50;99.90;;;;;;5094351;28;20039;-70
2023/03/14 00:33:38;;;;;;;7.28;2.17;;;10.70;99.90;;;;;;5094521;28;20075;-70
2023/03/14 00:36:06;;;;;;;19.00;2.85;;;10.70;99.90;;;;;;5129088;27;20483;-70
2023/03/14 00:38:33;;;;;;;15.10;2.08;;;10.90;99.90;;;;;;5104255;28;20062;-70
2023/03/14 00:40:59;;;;;;;12.75;3.35;;;10.90;99.90;;;;;;5105818;28;20403;-70
2023/03/14 00:43:24;;;;;;;9.95;1.95;;;10.90;99.90;;;;;;5095593;28;20036;-70
2023/03/14 00:45:52;;;;;;;6.18;1.73;;;11.00;99.90;;;;;;5095201;28;20048;-70
2023/03/14 00:48:19;;;;;;;14.15;2.60;;;11.00;99.90;;;;;;5114367;28;20044;-70
2023/03/14 00:50:45;;;;;;;8.82;2.22;;;11.10;99.90;;;;;;5149404;27;20063;-70
2023/03/14 00:53:10;;;;;;;6.68;1.95;;;11.10;99.90;;;;;;5114287;28;20047;-70
2023/03/14 00:55:42;;;;;;;15.90;3.20;;;11.10;99.90;;;;;;5132311;27;20043;-70
2023/03/14 00:58:08;;;;;;;14.53;2.47;;;11.10;99.90;;;;;;5114584;28;20455;-70
2023/03/14 01:00:34;;;;;;;11.95;2.63;;;11.10;99.90;;;;;;5081910;28;20059;-70
2023/03/14 01:03:00;;;;;;;13.18;2.53;;;11.10;99.90;;;;;;5129426;27;20070;-70
2023/03/14 01:05:26;;;;;;;15.10;3.33;;;11.10;99.90;;;;;;5114992;28;20549;-70
2023/03/14 01:07:51;;;;;;;10.02;1.95;;;11.20;99.90;;;;;;5114996;28;20036;-70
2023/03/14 01:10:17;;;;;;;12.63;2.83;;;11.20;99.90;;;;;;5115209;28;20031;-70
2023/03/14 01:12:42;;;;;;;16.00;3.13;;;11.10;99.90;;;;;;5096887;28;20078;-70
2023/03/14 01:15:09;;;;;;;10.20;3.20;;;11.20;99.90;;;;;;5144524;27;20075;-70
2023/03/14 01:17:35;;;;;;;15.10;3.85;;;11.20;99.90;;;;;;5114653;27;20071;-70
2023/03/14 01:20:01;;;;;;;6.90;2.40;;;11.20;99.90;;;;;;5096808;28;20036;-70
2023/03/14 01:22:27;;;;;;;17.08;3.75;;;11.20;99.90;;;;;;5101150;28;20074;-70
2023/03/14 01:24:52;;;;;;;13.52;3.10;;;11.20;99.90;;;;;;5128682;27;20071;-70
2023/03/14 01:27:18;;;;;;;17.17;3.85;;;11.20;99.90;;;;;;5132156;27;20513;-71
2023/03/14 01:29:43;;;;;;;15.77;3.38;;;11.20;99.90;;;;;;5148831;27;20070;-71
2023/03/14 01:32:09;;;;;;;8.55;2.67;;;11.10;99.90;;;;;;5103433;28;20043;-71
2023/03/14 01:34:34;;;;;;;18.50;3.17;;;11.10;99.90;;;;;;5093978;28;20040;-71
2023/03/14 01:37:00;;;;;;;14.80;3.25;;;11.00;99.90;;;;;;5129515;27;20449;-71
2023/03/14 01:39:25;;;;;;;15.55;3.25;;;11.00;99.90;;;;;;5131341;27;20050;-71
2023/03/14 01:41:51;;;;;;;10.90;2.35;;;11.00;99.90;;;;;;5147315;27;20042;-70
2023/03/14 01:44:17;;;;;;;19.77;3.90;;;11.10;99.90;;;;;;5131296;27;20070;-70
2023/03/14 01:46:45;;;;;;;14.82;3.20;;;11.10;99.90;;;;;;5111961;28;20404;-70
2023/03/14 01:49:31;;;;;;;12.80;2.72;;;11.00;99.90;;;;;;5115972;27;20491;-71
2023/03/14 01:52:04;;;;;;;13.43;2.80;;;11.00;99.90;;;;;;5105357;28;20081;-70
2023/03/14 01:54:47;;;;;;;3.42;1.17;;;11.00;99.90;;;;;;5093699;28;20051;-70
2023/03/14 01:57:28;;;;;;;13.18;2.53;;;11.10;99.90;;;;;;5113839;27;20032;-70
2023/03/14 02:00:03;;;;;;;11.20;2.42;;;11.10;99.90;;;;;;5148503;27;20040;-71
2023/03/14 02:02:30;;;;;;;8.20;2.17;;;11.10;99.90;;;;;;5095751;28;20035;-70
2023/03/14 02:04:57;;;;;;;7.18;2.15;;;11.10;99.90;;;;;;5114192;28;20457;-71
2023/03/14 02:07:30;;;;;;;11.98;3.33;;;11.10;99.90;;;;;;5113013;28;20043;-71
2023/03/14 02:09:57;;;;;;;15.63;2.67;;;11.10;99.90;;;;;;5114053;28;20043;-71
2023/03/14 02:12:23;;;;;;;15.38;2.45;;;11.10;99.90;;;;;;5095151;28;20089;-70
2023/03/14 02:14:49;;;;;;;11.65;3.28;;;11.10;99.90;;;;;;5113882;28;20483;-70
2023/03/14 02:17:17;;;;;;;12.50;2.40;;;10.90;99.90;;;;;;5138400;27;20047;-70
2023/03/14 02:20:08;;;;;;;10.68;2.40;;;11.00;99.90;;;;;;5110432;28;20048;-71
2023/03/14 02:22:35;;;;;;;7.20;1.70;;;10.90;99.90;;;;;;5093722;28;20434;-70
2023/03/14 02:25:25;;;;;;;12.15;2.55;;;11.10;99.90;;;;;;5093423;28;20097;-70
2023/03/14 02:27:51;;;;;;;8.55;2.08;;;10.90;99.90;;;;;;5109938;28;20047;-71
2023/03/14 02:30:20;;;;;;;5.60;1.45;;;10.90;99.90;;;;;;5127029;27;20055;-71
2023/03/14 02:32:49;;;;;;;4.53;1.38;;;10.80;99.90;;;;;;5109948;28;20071;-71
2023/03/14 02:35:20;;;;;;;13.68;2.45;;;10.90;99.90;;;;;;5092896;28;20051;-70
2023/03/14 02:37:51;;;;;;;6.95;1.60;;;10.90;99.90;;;;;;5117342;27;20035;-70
2023/03/14 02:40:18;;;;;;;9.00;1.83;;;10.90;99.90;;;;;;5113254;28;20031;-70
2023/03/14 02:42:43;;;;;;;4.20;1.30;;;11.00;99.90;;;;;;5113171;28;20216;-70
2023/03/14 02:45:09;;;;;;;5.63;1.77;;;11.00;99.90;;;;;;5113197;28;20031;-70
2023/03/14 02:47:37;;;;;;;8.93;1.65;;;10.90;99.90;;;;;;5142594;27;20427;-71
2023/03/14 02:50:08;;;;;;;8.85;1.90;;;10.80;99.90;;;;;;5084358;28;20052;-70
2023/03/14 02:52:33;;;;;;;7.45;1.48;;;10.80;99.90;;;;;;5111919;28;20059;-70
2023/03/14 02:54:59;;;;;;;7.50;1.55;;;10.80;99.90;;;;;;5096093;28;20408;-70
2023/03/14 02:57:24;;;;;;;9.50;2.33;;;10.80;99.90;;;;;;5128734;27;20498;-70
2023/03/14 02:59:50;;;;;;;9.80;1.92;;;10.70;99.90;;;;;;5129792;27;20035;-70
2023/03/14 03:02:16;;;;;;;10.45;1.73;;;10.80;99.90;;;;;;5146131;27;20444;-70
2023/03/14 03:04:41;;;;;;;13.25;3.05;;;10.70;99.90;;;;;;5113013;28;20066;-71
2023/03/14 03:07:07;;;;;;;9.25;1.77;;;10.70;99.90;;;;;;5092309;28;20044;-71
2023/03/14 03:09:33;;;;;;;11.38;3.00;;;10.80;99.90;;;;;;5126263;27;20089;-70
2023/03/14 03:11:58;;;;;;;13.52;3.13;;;10.80;99.90;;;;;;5126326;27;20044;-70
2023/03/14 03:14:24;;;;;;;11.07;2.88;;;10.70;99.90;;;;;;5126296;27;20555;-70
2023/03/14 03:16:49;;;;;;;13.82;3.17;;;10.60;99.90;;;;;;5132292;27;20747;-70
2023/03/14 03:19:17;;;;;;;8.60;2.17;;;10.50;99.90;;;;;;5126259;27;20036;-71
2023/03/14 03:21:43;;;;;;;7.53;2.35;;;10.50;99.90;;;;;;5109158;28;20085;-70
2023/03/14 03:24:09;;;;;;;10.65;1.88;;;10.50;99.90;;;;;;5127990;27;20039;-70
2023/03/14 03:26:36;;;;;;;7.25;2.95;;;10.50;99.90;;;;;;5110292;28;20046;-70
2023/03/14 03:29:02;;;;;;;9.55;2.38;;;10.50;99.90;;;;;;5109071;28;20096;-71
2023/03/14 03:31:28;;;;;;;9.93;2.95;;;10.50;99.90;;;;;;5126327;27;20044;-70
2023/03/14 03:33:53;;;;;;;8.65;2.05;;;10.40;99.90;;;;;;5092069;28;20064;-70
2023/03/14 03:36:24;;;;;;;9.55;2.13;;;10.40;99.90;;;;;;5112696;28;20047;-70
2023/03/14 03:38:49;;;;;;;12.00;2.70;;;10.30;99.90;;;;;;5094321;28;20036;-70
2023/03/14 03:41:15;;;;;;;9.40;2.75;;;10.40;99.90;;;;;;5112349;28;20084;-70
2023/03/14 03:43:40;;;;;;;14.15;3.60;;;10.30;99.90;;;;;;5110847;28;20200;-70
2023/03/14 03:46:06;;;;;;;11.52;3.10;;;10.20;99.90;;;;;;5111140;28;20043;-70
2023/03/14 03:48:33;;;;;;;7.97;3.13;;;10.10;99.90;;;;;;5094543;28;20073;-70
2023/03/14 03:50:58;;;;;;;6.63;2.40;;;10.10;99.90;;;;;;5095022;28;20091;-70
2023/03/14 03:53:24;;;;;;;7.95;2.45;;;10.30;99.90;;;;;;5111178;28;20132;-70
2023/03/14 03:55:49;;;;;;;8.65;2.80;;;10.20;99.90;;;;;;5112115;28;20040;-70
2023/03/14 03:58:15;;;;;;;7.75;2.05;;;10.20;99.90;;;;;;5097984;28;20043;-70
2023/03/14 04:00:41;;;;;;;11.45;3.30;;;10.10;99.90;;;;;;5074938;28;20071;-70
2023/03/14 04:03:07;;;;;;;8.63;3.17;;;10.10;99.90;;;;;;5136832;27;20083;-70
2023/03/14 04:05:34;;;;;;;11.90;3.55;;;10.00;99.90;;;;;;5112149;28;20509;-71
2023/03/14 04:08:00;;;;;;;9.23;3.10;;;10.00;99.90;;;;;;5100048;28;20036;-70
2023/03/14 04:10:25;;;;;;;7.82;3.28;;;10.10;99.90;;;;;;5108870;28;20044;-71
2023/03/14 04:12:52;;;;;;;7.15;2.08;;;10.10;99.90;;;;;;5117112;28;20039;-70
2023/03/14 04:15:17;;;;;;;11.27;3.13;;;10.10;99.90;;;;;;5094971;28;20496;-70
2023/03/14 04:17:43;;;;;;;13.60;4.05;;;10.10;99.90;;;;;;5092096;28;20035;-70
2023/03/14 04:20:12;;;;;;;6.75;2.85;;;10.10;99.90;;;;;;5111909;28;20036;-71
2023/03/14 04:22:39;;;;;;;14.35;4.30;;;10.00;99.90;;;;;;5112254;28;20487;-70
2023/03/14 04:25:05;;;;;;;9.38;2.80;;;10.00;99.90;;;;;;5146576;27;20506;-71
2023/03/14 04:27:31;;;;;;;10.13;3.47;;;10.00;99.90;;;;;;5145208;27;20039;-71
2023/03/14 04:29:57;;;;;;;13.48;3.55;;;9.90;99.90;;;;;;5112052;28;20598;-71
2023/03/14 04:32:22;;;;;;;10.32;3.40;;;9.90;99.90;;;;;;5106236;28;20040;-71
2023/03/14 04:34:48;;;;;;;9.60;3.13;;;9.90;99.90;;;;;;5099099;28;20043;-71
2023/03/14 04:37:13;;;;;;;12.57;3.20;;;9.90;99.90;;;;;;5109097;28;20036;-71
2023/03/14 04:39:39;;;;;;;11.23;3.17;;;9.90;99.90;;;;;;5095145;28;20395;-71
2023/03/14 04:42:05;;;;;;;9.15;3.17;;;9.90;99.90;;;;;;5113316;28;20042;-71
2023/03/14 04:44:31;;;;;;;6.13;2.28;;;9.90;99.90;;;;;;5091439;28;20040;-71
2023/03/14 04:46:56;;;;;;;3.90;1.48;;;9.90;99.90;;;;;;5105800;28;20039;-71
2023/03/14 04:49:22;;;;;;;11.32;2.80;;;9.90;99.90;;;;;;5097506;28;20394;-71
2023/03/14 04:51:50;;;;;;;8.73;2.53;;;10.00;99.90;;;;;;5114049;28;20043;-71
2023/03/14 04:54:16;;;;;;;8.70;2.47;;;9.90;99.90;;;;;;5097629;28;20434;-71
2023/03/14 04:56:41;;;;;;;7.63;2.38;;;9.90;99.90;;;;;;5115609;28;20043;-71
2023/03/14 04:59:08;;;;;;;6.93;2.08;;;9.90;99.90;;;;;;5112061;28;20514;-71
2023/03/14 05:01:33;;;;;;;7.93;2.45;;;9.90;99.90;;;;;;5128815;27;20071;-71
2023/03/14 05:03:59;;;;;;;6.53;2.50;;;9.90;99.90;;;;;;5111987;28;20071;-71
2023/03/14 05:06:25;;;;;;;9.82;2.78;;;9.90;99.90;;;;;;5128658;27;20036;-71
2023/03/14 05:08:50;;;;;;;5.32;1.83;;;9.90;99.90;;;;;;5144341;27;20088;-71
2023/03/14 05:11:16;;;;;;;10.43;3.08;;;9.90;99.90;;;;;;5111466;28;20503;-71
2023/03/14 05:13:41;;;;;;;6.93;2.47;;;9.90;99.90;;;;;;5094465;28;20032;-72
2023/03/14 05:16:09;;;;;;;10.93;2.80;;;9.90;99.90;;;;;;5099105;27;20445;-72
2023/03/14 05:18:35;;;;;;;6.90;2.67;;;9.90;99.90;;;;;;5082705;28;20416;-72
2023/03/14 05:21:01;;;;;;;5.00;2.08;;;9.90;99.90;;;;;;5114822;28;20042;-72
2023/03/14 05:23:26;;;;;;;8.68;2.63;;;9.90;99.90;;;;;;5097755;28;20047;-71
2023/03/14 05:25:52;;;;;;;9.15;3.20;;;9.90;99.90;;;;;;5097714;28;20077;-71
2023/03/14 05:28:18;;;;;;;7.50;2.30;;;9.90;99.90;;;;;;5101403;28;20125;-72
2023/03/14 05:30:43;;;;;;;5.75;2.10;;;9.90;99.90;;;;;;5094079;28;20519;-71
2023/03/14 05:33:09;;;;;;;5.50;2.25;;;9.90;99.90;;;;;;5139346;27;20071;-71
2023/03/14 05:35:34;;;;;;;7.82;2.00;;;9.90;99.90;;;;;;5097384;28;20494;-71
2023/03/14 05:38:00;;;;;;;9.50;3.50;;;9.90;99.90;;;;;;5103608;28;20105;-72
2023/03/14 05:40:26;;;;;;;11.43;3.42;;;9.90;99.90;;;;;;5128044;27;20032;-71
2023/03/14 05:42:52;;;;;;;8.95;3.40;;;9.80;99.90;;;;;;5094215;28;20415;-72
2023/03/14 05:45:17;;;;;;;9.23;3.03;;;9.80;99.90;;;;;;5093883;28;20048;-72
2023/03/14 05:47:43;;;;;;;8.45;2.78;;;9.90;99.90;;;;;;5091343;28;20050;-71
2023/03/14 05:50:09;;;;;;;6.00;3.05;;;9.80;99.90;;;;;;5114219;28;20457;-71
2023/03/14 05:52:35;;;;;;;5.10;2.90;;;9.80;99.90;;;;;;5097398;28;20047;-72
2023/03/14 05:55:01;;;;;;;8.57;2.97;;;9.80;99.90;;;;;;5148583;27;20513;-71
2023/03/14 05:57:26;;;;;;;5.65;2.35;;;9.80;99.90;;;;;;5129962;27;20115;-71
2023/03/14 05:59:52;;;;;;;8.73;2.63;;;9.80;99.90;;;;;;5148395;27;20032;-71
2023/03/14 06:02:17;;;;;;;8.50;3.05;;;9.80;99.90;;;;;;5131211;27;20032;-72
2023/03/14 06:04:43;;;;;;;8.23;2.78;;;9.80;99.90;;;;;;5114119;28;20536;-72
2023/03/14 06:07:08;;;;;;;10.15;3.38;;;9.70;99.90;;;;;;5093297;28;20035;-72
2023/03/14 06:09:34;;;;;;;6.60;3.40;;;9.70;99.90;;;;;;5097113;28;20055;-72
2023/03/14 06:11:59;;;;;;;8.35;2.92;;;9.70;99.90;;;;;;5129861;27;20099;-72
2023/03/14 06:14:25;;;;;;;10.60;3.45;;;9.70;99.90;;;;;;5130710;27;20100;-72
2023/03/14 06:16:52;;;;;;;9.07;3.20;;;9.80;99.90;;;;;;5107572;28;20036;-71
2023/03/14 06:19:18;;;;;;;8.25;3.15;;;9.70;99.90;;;;;;5100500;28;20572;-72
2023/03/14 06:21:43;;;;;;;9.15;3.63;;;9.70;99.90;;;;;;5129655;27;20070;-71
2023/03/14 06:24:09;;;;;;;8.60;2.75;;;9.60;99.90;;;;;;5113530;28;20036;-71
2023/03/14 06:26:34;;;;;;;9.02;3.38;;;9.60;99.90;;;;;;5128478;27;20036;-72
2023/03/14 06:29:03;;;;;;;2.28;1.27;;;9.60;99.90;;;;;;5111485;27;20047;-71
2023/03/14 06:31:32;;;;;;;10.27;3.40;;;9.70;99.90;;;;;;5092904;28;20044;-71
2023/03/14 06:33:58;;;;;;;6.82;2.42;;;9.70;99.90;;;;;;5127597;27;20036;-72
2023/03/14 06:36:24;;;;;;;8.80;3.10;;;9.70;99.90;;;;;;5111028;28;20056;-71
2023/03/14 06:38:49;;;;;;;7.57;3.53;;;9.60;99.90;;;;;;5110270;27;20179;-71
2023/03/14 06:41:15;;;;;;;5.90;2.05;;;9.60;99.90;;;;;;5092683;28;20094;-71
2023/03/14 06:43:40;;;;;;;6.85;2.75;;;9.60;99.90;;;;;;5141258;27;20047;-71
2023/03/14 06:46:06;;;;;;;9.07;3.53;;;9.60;99.90;;;;;;5120536;27;20035;-71
2023/03/14 06:48:32;;;;;;;6.57;2.90;;;9.60;99.90;;;;;;5083647;28;20115;-71
2023/03/14 06:50:57;;;;;;;10.93;3.40;;;9.50;99.90;;;;;;5092535;28;20091;-71
2023/03/14 06:53:23;;;;;;;11.35;3.78;;;9.50;99.90;;;;;;5075987;28;20040;-71
2023/03/14 06:55:48;;;;;;;7.32;2.22;;;9.50;99.90;;;;;;5093562;28;20065;-71
2023/03/14 06:58:14;;;;;;;5.78;2.45;;;9.40;99.90;;;;;;5126471;27;20036;-69
2023/03/14 07:00:40;;;;;;;7.85;2.63;;;9.50;99.90;;;;;;5092417;28;20063;-69
2023/03/14 07:03:05;;;;;;;8.45;2.42;;;9.40;99.90;;;;;;5119512;27;20036;-68
2023/03/14 07:05:31;;;;;;;6.70;1.42;;;9.10;99.90;;;;;;5130081;27;20043;-68
2023/03/14 07:07:56;;;;;;;5.00;0.88;;;8.80;99.90;;;;;;5109398;28;20437;-68
2023/03/14 07:10:22;;;;;;;7.45;1.02;;;8.50;99.90;;;;;;5129209;27;20070;-68
2023/03/14 07:12:48;;;;;;;6.32;1.23;;;8.30;99.90;;;;;;5108090;28;20479;-68
2023/03/14 07:15:14;;;;;;;6.10;1.27;;;8.00;99.90;;;;;;5103134;28;20048;-68
2023/03/14 07:17:40;;;;;;;4.97;1.10;;;7.90;99.90;;;;;;5112559;28;20066;-68
2023/03/14 07:20:07;;;;;;;6.65;0.90;;;7.70;99.90;;;;;;5094711;28;20111;-68
2023/03/14 07:22:33;;;;;;;7.25;1.42;;;7.60;99.90;;;;;;5111998;28;20034;-69
2023/03/14 07:24:58;;;;;;;7.00;1.10;;;7.60;99.90;;;;;;5101919;28;20035;-68
2023/03/14 07:27:24;;;;;;;6.47;1.27;;;7.40;99.90;;;;;;5088288;28;20040;-68
2023/03/14 07:29:49;;;;;;;8.77;1.00;;;7.30;99.90;;;;;;5099973;28;20470;-68
2023/03/14 07:32:15;;;;;;;5.95;1.33;;;7.10;99.90;;;;;;5103183;28;20472;-69
2023/03/14 07:34:44;;;;;;;8.73;1.70;;;7.00;99.90;;;;;;5101000;28;20047;-68
2023/03/14 07:37:10;;;;;;;8.63;1.02;;;6.90;99.90;;;;;;5088498;28;20032;-69
2023/03/14 07:39:35;;;;;;;7.90;1.20;;;6.80;99.90;;;;;;5142790;27;20032;-69
2023/03/14 07:42:01;;;;;;;5.57;1.80;;;6.70;99.90;;;;;;5118038;28;20069;-69
2023/03/14 07:44:27;;;;;;;4.53;0.98;;;6.50;99.90;;;;;;5095183;28;20487;-69
2023/03/14 07:46:53;;;;;;;3.63;0.63;;;6.50;99.90;;;;;;5088867;28;20067;-68
2023/03/14 07:49:18;;;;;;;6.63;1.20;;;6.30;99.90;;;;;;5118927;28;20495;-68
2023/03/14 07:51:46;;;;;;;5.22;0.55;;;6.10;99.90;;;;;;5123030;28;20055;-69
2023/03/14 07:54:12;;;;;;;4.20;0.60;;;6.20;99.90;;;;;;5083387;28;20138;-68
2023/03/14 07:56:38;;;;;;;1.30;0.40;;;6.10;99.90;;;;;;5109920;28;20150;-69
2023/03/14 07:59:03;;;;;;;2.47;0.60;;;5.90;99.90;;;;;;5140031;27;20040;-69
2023/03/14 08:01:29;;;;;;;2.15;0.60;;;5.80;99.90;;;;;;5114212;28;20395;-69
2023/03/14 08:03:54;;;;;;;4.32;0.50;;;5.80;99.90;;;;;;5099846;28;20047;-69
2023/03/14 08:06:20;;;;;;;3.22;0.50;;;5.90;99.90;;;;;;5103057;28;20028;-69
2023/03/14 08:08:45;;;;;;;3.45;0.50;;;5.90;99.90;;;;;;5106715;28;20699;-69
2023/03/14 08:11:11;;;;;;;6.85;1.20;;;5.60;99.90;;;;;;5091875;28;20090;-68
2023/03/14 08:13:37;;;;;;;3.60;0.90;;;5.60;99.90;;;;;;5102384;28;20122;-69
2023/03/14 08:16:03;;;;;;;0.98;0.50;;;5.70;99.90;;;;;;5117478;27;20044;-69
2023/03/14 08:18:29;;;;;;;2.63;0.52;;;5.60;99.90;;;;;;5115204;28;20036;-69
2023/03/14 08:20:55;;;;;;;4.18;0.47;;;5.50;99.90;;;;;;5101247;27;20100;-69
2023/03/14 08:23:20;;;;;;;1.08;0.40;;;5.50;99.90;;;;;;5105627;28;20373;-69
2023/03/14 08:25:50;;;;;;;2.00;0.43;;;5.60;99.90;;;;;;5117428;27;20039;-69
2023/03/14 08:28:15;;;;;;;3.22;0.57;;;5.60;99.90;;;;;;5089284;28;20063;-69
2023/03/14 08:30:41;;;;;;;0.93;0.40;;;5.60;99.90;;;;;;5104228;27;20083;-69
2023/03/14 08:33:07;;;;;;;3.83;0.60;;;5.60;99.90;;;;;;5105686;28;20032;-69
2023/03/14 08:35:32;;;;;;;2.90;0.50;;;5.60;99.90;;;;;;5109529;28;20036;-69
2023/03/14 08:37:58;;;;;;;2.33;0.45;;;5.50;99.90;;;;;;5095073;28;20027;-69
2023/03/14 08:40:23;;;;;;;2.88;0.75;;;5.50;99.90;;;;;;5096809;28;20035;-69
2023/03/14 08:42:49;;;;;;;2.75;0.60;;;5.60;99.90;;;;;;5097252;28;20089;-69
2023/03/14 08:45:16;;;;;;;7.30;0.70;;;5.80;99.90;;;;;;5115401;28;20063;-69
2023/03/14 08:47:43;;;;;;;4.93;1.38;;;5.80;99.90;;;;;;5113667;27;20047;-69
2023/03/14 08:50:09;;;;;;;5.57;0.70;;;5.80;99.90;;;;;;5089794;28;20413;-70
2023/03/14 08:52:37;;;;;;;4.70;0.70;;;5.80;99.90;;;;;;5093760;28;20385;-69
2023/03/14 08:55:03;;;;;;;4.68;0.70;;;5.90;99.90;;;;;;5091354;28;20042;-69
2023/03/14 08:57:29;;;;;;;3.80;0.85;;;5.80;99.90;;;;;;5108501;28;20028;-69
2023/03/14 08:59:56;;;;;;;4.88;0.70;;;5.90;99.90;;;;;;5109738;28;20097;-69
2023/03/14 09:02:23;;;;;;;5.68;0.75;;;5.90;99.90;;;;;;5090147;28;20037;-69
2023/03/14 09:04:53;;;;;;;5.57;0.80;;;6.00;99.90;;;;;;5104464;27;20404;-68
2023/03/14 09:07:19;;;;;;;2.90;0.55;;;6.00;99.90;;;;;;5085153;28;20487;-69
2023/03/14 09:09:45;;;;;;;8.52;1.27;;;6.00;99.90;;;;;;5108744;27;20044;-69
2023/03/14 09:12:11;;;;;;;8.45;2.17;;;6.00;99.90;;;;;;5145865;27;20052;-68
2023/03/14 09:14:36;;;;;;;8.35;1.38;;;5.90;99.90;;;;;;5125092;27;20046;-68
2023/03/14 09:17:03;;;;;;;7.30;1.13;;;6.00;99.90;;;;;;5091980;28;20402;-69
2023/03/14 09:19:29;;;;;;;12.85;1.88;;;6.10;99.90;;;;;;5110992;28;20472;-68
2023/03/14 09:21:54;;;;;;;10.70;1.52;;;6.10;99.90;;;;;;5103143;28;20036;-68
2023/03/14 09:24:20;;;;;;;14.80;2.33;;;6.20;99.90;;;;;;5098462;28;20658;-68
2023/03/14 09:26:46;;;;;;;9.35;1.90;;;6.20;99.90;;;;;;5105267;28;20054;-68
2023/03/14 09:29:11;;;;;;;12.70;1.85;;;6.10;99.90;;;;;;5082239;28;20031;-69
2023/03/14 09:31:37;;;;;;;10.20;1.67;;;6.20;99.90;;;;;;5097818;28;20038;-68
2023/03/14 09:34:02;;;;;;;13.10;1.95;;;6.20;99.90;;;;;;5099066;27;20031;-69
2023/03/14 09:36:28;;;;;;;17.70;2.22;;;6.40;99.90;;;;;;5102827;28;20089;-69
2023/03/14 09:38:54;;;;;;;12.77;1.98;;;6.40;99.90;;;;;;5091197;28;20093;-69
2023/03/14 09:41:32;;;;;;;13.15;2.72;;;6.50;99.90;;;;;;5105680;28;20517;-69
2023/03/14 09:44:25;;;;;;;16.95;2.30;;;6.50;99.90;;;;;;5095187;28;20031;-68
2023/03/14 09:46:53;;;;;;;16.27;2.88;;;6.50;99.90;;;;;;5090355;27;20047;-68
2023/03/14 09:49:27;;;;;;;11.70;2.53;;;6.40;99.90;;;;;;5094931;28;20429;-68
2023/03/14 09:51:55;;;;;;;18.88;2.17;;;6.40;99.90;;;;;;5097909;27;20043;-68
2023/03/14 09:54:34;;;;;;;13.57;2.53;;;6.40;99.90;;;;;;5096763;28;20051;-68
2023/03/14 09:57:00;;;;;;;16.85;2.47;;;6.40;99.90;;;;;;5089775;28;20051;-68
2023/03/14 09:59:28;;;;;;;13.00;2.45;;;6.50;99.90;;;;;;5085950;28;20044;-68
2023/03/14 10:01:59;;;;;;;14.10;2.15;;;6.50;99.90;;;;;;5088073;28;20039;-68
2023/03/14 10:04:25;;;;;;;11.53;1.97;;;6.40;99.90;;;;;;5099788;28;20046;-68
2023/03/14 10:06:51;;;;;;;15.02;3.45;;;6.40;99.90;;;;;;5104217;28;20130;-69
2023/03/14 10:09:25;;;;;;;12.30;2.03;;;6.40;99.90;;;;;;5092809;28;20036;-68
2023/03/14 10:12:01;;;;;;;10.15;1.90;;;6.50;99.90;;;;;;5110824;28;20126;-68
2023/03/14 10:14:35;;;;;;;20.27;2.80;;;6.50;99.90;;;;;;5089602;28;20043;-68
2023/03/14 10:17:10;;;;;;;16.02;2.00;;;6.50;99.90;;;;;;5111092;28;20086;-68
2023/03/14 10:19:37;;;;;;;13.70;2.95;;;6.60;99.90;;;;;;5102967;28;20047;-68
2023/03/14 10:22:05;;;;;;;11.52;2.45;;;6.60;99.90;;;;;;5087193;28;20815;-68
2023/03/14 10:24:33;;;;;;;14.68;2.97;;;6.60;99.90;;;;;;5092621;28;20040;-68
2023/03/14 10:27:02;;;;;;;13.32;2.50;;;6.60;99.90;;;;;;5085598;28;20036;-68
2023/03/14 10:29:29;;;;;;;16.25;2.97;;;6.60;99.90;;;;;;5113010;28;20062;-68
2023/03/14 10:32:07;;;;;;;16.30;2.67;;;6.50;99.90;;;;;;5098319;28;20035;-68
2023/03/14 10:34:38;;;;;;;12.38;2.20;;;6.50;99.90;;;;;;5142322;27;20085;-68
2023/03/14 10:37:25;;;;;;;14.93;2.45;;;6.50;99.90;;;;;;5092628;28;20067;-68
2023/03/14 10:39:54;;;;;;;14.57;2.53;;;6.60;99.90;;;;;;5075905;28;20044;-68
2023/03/14 10:42:29;;;;;;;13.95;2.47;;;6.60;99.90;;;;;;5092836;28;20059;-68
2023/03/14 10:44:58;;;;;;;19.77;2.92;;;6.70;99.90;;;;;;5083256;28;20036;-68
2023/03/14 10:47:26;;;;;;;20.52;3.13;;;6.70;99.90;;;;;;5098205;28;20063;-68
2023/03/14 10:49:52;;;;;;;13.00;2.30;;;6.70;99.90;;;;;;5109983;27;20464;-68
2023/03/14 10:52:26;;;;;;;13.05;1.75;;;6.70;99.90;;;;;;5095883;28;20074;-68
2023/03/14 10:54:58;;;;;;;15.80;2.65;;;6.70;99.90;;;;;;5098491;28;20047;-68
2023/03/14 10:57:25;;;;;;;14.93;2.40;;;6.70;99.90;;;;;;5095937;28;20032;-68
2023/03/14 10:59:53;;;;;;;14.32;3.13;;;6.80;99.90;;;;;;5139934;27;20040;-68
2023/03/14 11:02:27;;;;;;;12.48;2.13;;;6.90;99.90;;;;;;5143967;27;20036;-68
2023/03/14 11:05:04;;;;;;;12.35;1.80;;;6.90;99.90;;;;;;5093188;28;20488;-68
2023/03/14 11:07:41;;;;;;;11.80;1.92;;;6.90;99.90;;;;;;5095089;28;20055;-69
2023/03/14 11:10:32;;;;;;;10.73;1.50;;;7.00;99.90;;;;;;5100535;28;20039;-68
2023/03/14 11:13:12;;;;;;;11.75;1.90;;;7.00;99.90;;;;;;5094831;28;20434;-68
2023/03/14 11:15:53;;;;;;;13.50;1.77;;;7.10;99.90;;;;;;5125056;27;20422;-68
2023/03/14 11:18:27;;;;;;;13.43;2.22;;;7.10;99.90;;;;;;5095021;28;20032;-68
2023/03/14 11:21:09;;;;;;;11.10;2.15;;;6.90;99.90;;;;;;5138114;27;20040;-68
2023/03/14 11:24:12;;;;;;;12.95;1.85;;;6.80;99.90;;;;;;5091518;28;20036;-68
2023/03/14 11:26:44;;;;;;;11.88;1.95;;;6.90;99.90;;;;;;5091941;28;20044;-68
2023/03/14 11:29:31;;;;;;;8.80;1.65;;;7.00;99.90;;;;;;5092842;28;20040;-67
2023/03/14 11:32:01;;;;;;;12.18;1.83;;;7.10;99.90;;;;;;5091851;28;20040;-68
2023/03/14 11:34:40;;;;;;;8.05;1.35;;;7.10;99.90;;;;;;5093460;28;20035;-67
2023/03/14 11:37:29;;;;;;;10.07;1.65;;;7.10;99.90;;;;;;5104732;28;20036;-68
2023/03/14 11:40:13;;;;;;;8.00;1.70;;;7.10;99.90;;;;;;5104435;28;20094;-68
2023/03/14 11:42:42;;;;;;;8.80;1.38;;;7.10;99.90;;;;;;5139516;27;20035;-68
2023/03/14 11:45:22;;;;;;;10.48;1.70;;;7.10;99.90;;;;;;5111176;28;20377;-68
2023/03/14 11:48:06;;;;;;;8.43;1.40;;;7.00;99.90;;;;;;5094246;28;20097;-68
2023/03/14 11:50:33;;;;;;;12.32;1.92;;;6.80;99.90;;;;;;5095757;28;20105;-68
2023/03/14 11:53:10;;;;;;;5.97;1.13;;;6.70;99.90;;;;;;5086877;28;20392;-68
2023/03/14 11:55:38;;;;;;;9.35;1.60;;;6.80;99.90;;;;;;5130121;27;20408;-68
2023/03/14 11:58:29;;;;;;;8.55;1.40;;;6.90;99.90;;;;;;5078180;28;20555;-68
2023/03/14 12:00:56;;;;;;;7.50;1.17;;;7.00;99.90;;;;;;5090370;28;20073;-67
2023/03/14 12:03:45;;;;;;;7.82;1.23;;;6.90;99.90;;;;;;5087404;28;20119;-67
2023/03/14 12:06:39;;;;;;;6.32;1.02;;;7.00;99.90;;;;;;5114445;28;20507;-68
2023/03/14 12:09:06;;;;;;;7.45;1.40;;;7.00;99.90;;;;;;5097754;28;20124;-68
2023/03/14 12:11:44;;;;;;;9.95;1.55;;;7.10;99.90;;;;;;5095741;28;20040;-68
2023/03/14 12:14:24;;;;;;;5.65;1.27;;;7.30;99.90;;;;;;5092097;28;20051;-68
2023/03/14 12:17:04;;;;;;;9.80;1.20;;;7.40;99.90;;;;;;5112098;28;20657;-68
2023/03/14 12:19:33;;;;;;;10.48;1.38;;;7.50;99.90;;;;;;5096536;28;20473;-68
2023/03/14 12:22:05;;;;;;;7.53;1.63;;;7.60;99.90;;;;;;5106176;28;20034;-68
2023/03/14 12:24:37;;;;;;;6.22;0.90;;;7.60;99.90;;;;;;5082300;28;20071;-68
2023/03/14 12:27:04;;;;;;;;;;;7.80;99.90;;;;;;5096638;28;20404;-68
2023/03/14 12:29:30;;;;;;;7.80;1.33;;;7.80;99.90;;;;;;5097234;28;19919;-68
2023/03/14 12:32:23;;;;;;;8.75;1.60;;;7.60;99.90;;;;;;5095455;28;20048;-68
2023/03/14 12:34:49;;;;;;;4.68;0.93;;;7.40;99.30;;;;;;5079507;28;20097;-68
2023/03/14 12:37:19;;;;;;;7.75;1.27;;;7.30;99.90;;;;;;5078555;28;20036;-68
2023/03/14 12:40:01;;;;;;;7.13;1.00;;;7.30;99.90;;;;;;5094798;28;20047;-68
2023/03/14 12:42:29;;;;;;;4.68;1.00;;;7.40;99.90;;;;;;5083359;28;20039;-68
2023/03/14 12:45:20;;;;;;;12.43;2.10;;;7.30;99.90;;;;;;5111084;27;20101;-68
2023/03/14 12:48:13;;;;;;;9.23;1.90;;;7.10;99.90;;;;;;5077866;28;20048;-68
2023/03/14 12:50:53;;;;;;;10.50;1.73;;;6.90;99.90;;;;;;5077940;28;20443;-68
2023/03/14 12:53:27;;;;;;;8.50;1.30;;;7.00;99.90;;;;;;5077106;28;20123;-68
2023/03/14 12:56:14;;;;;;;6.15;1.30;;;7.10;99.90;;;;;;5077624;28;20036;-68
2023/03/14 12:58:55;;;;;;;4.50;0.98;;;7.30;99.90;;;;;;5093645;28;20036;-68